Randsburg, CA (93554)

10:02 PM PDT on September 22, 2014 (GMT -0700)
FAR site | Change Station
CLOSE
Current Station
Personal Weather Station
Location: Cantil, CA
Elevation: 2000 ft
Nearby Weather Stations

Elev 2000 ft 35.35 °N, 117.81 °W | Updated 2 minutes ago

Clear
Clear
80.5 °F
Feels Like 80 °F
N
8.0
Wind Variable Wind from South
Gusts 8.0 mph

Today
High -- | Low -- °F
--% Chance of Precip.
Yesterday
High -- | Low -- °F
Precip. -- in
6:39 AM 6:47 PM
Waning Crescent, 1% visible
Pressure 29.91 in
Visibility 10.0 miles
Clouds Clear
Heat Index 80 °F
Dew Point 49 °F
Humidity 33%
Rainfall 0.00 in
Snow Depth 2 in , 0 in , 0 in
UV 0 out of 12
Pollen 6.80 out of 12
Ozone Good
Flu Activity Not available.
METAR KNID 230456Z 19007KT 10SM CLR 25/M01 A2996 RMK AO2 SLP128 T02501011 $

More Conditions Fewer Conditions

Pressure 29.91 in
Visibility 10.0 miles
Clouds Clear
Heat Index 80 °F
Dew Point 49 °F
Humidity 33%
Rainfall 0.00 in
Snow Depth 2 in , 0 in , 0 in
UV 0 out of 12
Pollen 6.80 out of 12
Ozone Good
Flu Activity Not available.
METAR KNID 230456Z 19007KT 10SM CLR 25/M01 A2996 RMK AO2 SLP128 T02501011 $

More Conditions Fewer Conditions

10-Day Weather Forecast

Almanac

Astronomy

Sep. 22, 2014 Rise Set
Actual Time 6:39 AM PDT 6:47 PM PDT
Civil Twilight 6:13 AM PDT 7:13 PM PDT
Nautical Twilight 5:44 AM PDT 7:42 PM PDT
Astronomical Twilight 5:14 AM PDT 8:12 PM PDT
Moon 5:14 AM PDT (9/22) 5:56 PM PDT (9/22)
Length of Visible Light 12h 59m
Length of Day
12h 08m
Tomorrow will be 2m 14s shorter.
Waning Crescent, 1% of the Moon is Illuminated
Sep 23
Waning Crescent
Sep 24
New
Oct 1
First Quarter
Oct 8
Full
Oct 15
Last Quarter

Yesterday's Extremes

State Highs State Lows

Community

WunderPhotos

Upload Photos

1,755,607 photos uploaded!

Nearby

Air Quality

  Air Quality AQ Index Pollutant
Yesterday Good
OZONE
Current Good
OZONE
Tuesday Good
PM10
Tuesday Good
OZONE
Tuesday Good
CO
Tuesday Good
NO2

Snow Depth

Station Depth Elevation
CSS Lab 2 in 6900 ft
Summit Meadow 0 in 9122 ft
Spratt Creek 0 in 6200 ft
Leavitt Lake 0 in 9400 ft
Echo Peak 0 in 7800 ft

Earthquake Activity

City Distance Mag. Time & Date
Big Bear Lake, California 85 miles 2.5 7:26 AM PDT
2014-09-22
Inyokern, California 48 miles 3.1 5:33 PM PDT
2014-09-19
Minimum magnitude displayed is 2.5.

Coastal Water Temperatures

Place Temperature
No Stations Reporting

Nearby Weather Stations